Time;durP1;ratioP1;P1;durP2;ratioP2;P2;SDS_P1;SDS_P2;PMS_P1;PMS_P2;Temp;Humidity;BMP_temperature;BMP_pressure;BME280_temperature;BME280_humidity;BME280_pressure;Samples;Min_cycle;Max_cycle;Signal;HPM_P1;HPM_P2
2023/10/13 00:00:29;;;;;;;6.05;2.53;;;20.80;71.90;;;;;;5034336;28;20136;-49
2023/10/13 00:03:01;;;;;;;5.40;2.63;;;20.70;71.80;;;;;;5034378;28;20060;-51
2023/10/13 00:05:30;;;;;;;4.55;2.45;;;20.70;71.60;;;;;;5032662;28;20037;-52
2023/10/13 00:08:00;;;;;;;5.68;2.53;;;20.70;71.70;;;;;;5034206;28;20029;-54
2023/10/13 00:10:30;;;;;;;7.20;2.20;;;20.70;71.80;;;;;;5034433;28;20083;-47
2023/10/13 00:13:12;;;;;;;7.07;2.70;;;20.70;71.60;;;;;;5034462;28;20459;-46
2023/10/13 00:15:57;;;;;;;6.18;2.45;;;20.70;71.70;;;;;;5034137;28;20084;-46
2023/10/13 00:18:41;;;;;;;5.60;2.17;;;20.70;71.70;;;;;;5034138;28;20488;-54
2023/10/13 00:21:19;;;;;;;7.90;2.70;;;20.70;71.60;;;;;;5034025;28;20500;-48
2023/10/13 00:23:55;;;;;;;6.72;2.50;;;20.70;71.60;;;;;;5033932;28;20025;-52
2023/10/13 00:26:27;;;;;;;5.43;2.30;;;20.70;71.70;;;;;;5033646;28;20079;-53
2023/10/13 00:29:01;;;;;;;4.63;2.30;;;20.70;71.60;;;;;;5033954;28;20048;-55
2023/10/13 00:31:33;;;;;;;9.60;2.65;;;20.70;71.70;;;;;;5033875;28;20029;-52
2023/10/13 00:34:01;;;;;;;4.05;2.28;;;20.70;71.50;;;;;;5033789;28;20032;-52
2023/10/13 00:36:27;;;;;;;6.90;2.75;;;20.70;71.50;;;;;;5032082;28;20025;-48
2023/10/13 00:38:56;;;;;;;5.80;2.40;;;20.70;71.50;;;;;;5033732;28;20022;-49
2023/10/13 00:41:44;;;;;;;5.97;2.58;;;20.70;71.50;;;;;;5033752;28;20033;-46
2023/10/13 00:44:08;;;;;;;4.95;2.63;;;20.70;71.50;;;;;;5032158;28;20104;-46
2023/10/13 00:46:37;;;;;;;7.10;2.60;;;20.70;71.60;;;;;;5033352;28;20025;-51
2023/10/13 00:49:05;;;;;;;5.10;2.47;;;20.70;71.50;;;;;;5033432;28;20036;-53
2023/10/13 00:51:47;;;;;;;5.72;2.72;;;20.70;71.70;;;;;;5033384;28;20083;-52
2023/10/13 00:54:13;;;;;;;5.63;2.45;;;20.70;71.60;;;;;;5033289;28;20108;-48
2023/10/13 00:56:46;;;;;;;4.72;2.25;;;20.70;71.50;;;;;;5032926;28;20044;-52
2023/10/13 00:59:16;;;;;;;5.97;2.42;;;20.70;71.50;;;;;;5076138;23;20459;-55
2023/10/13 01:01:43;;;;;;;5.80;2.22;;;20.70;71.40;;;;;;5073255;28;20023;-57
2023/10/13 01:04:12;;;;;;;4.72;2.15;;;20.70;71.50;;;;;;5073055;28;20483;-55
2023/10/13 01:06:39;;;;;;;6.80;2.42;;;20.70;71.50;;;;;;5072724;28;20388;-53
2023/10/13 01:09:18;;;;;;;3.67;1.90;;;20.70;71.50;;;;;;5081523;28;20115;-58
2023/10/13 01:11:51;;;;;;;6.25;2.20;;;20.70;71.60;;;;;;5093249;28;20089;-54
2023/10/13 01:14:20;;;;;;;8.00;2.50;;;20.70;71.50;;;;;;5093286;28;20031;-55
2023/10/13 01:16:52;;;;;;;6.22;2.17;;;20.70;71.30;;;;;;5092783;28;20028;-53
2023/10/13 01:19:19;;;;;;;5.78;2.30;;;20.80;71.50;;;;;;5092990;28;20032;-59
2023/10/13 01:21:47;;;;;;;3.88;2.20;;;20.70;71.60;;;;;;5092926;28;20456;-57
2023/10/13 01:24:17;;;;;;;5.85;2.30;;;20.70;71.60;;;;;;5091727;28;20028;-56
2023/10/13 01:26:43;;;;;;;5.15;2.05;;;20.70;71.40;;;;;;5092720;28;20036;-56
2023/10/13 01:29:13;;;;;;;7.82;2.60;;;20.70;71.50;;;;;;5092795;28;20020;-59
2023/10/13 01:31:45;;;;;;;4.78;1.95;;;20.70;71.50;;;;;;5091713;28;20222;-59
2023/10/13 01:34:24;;;;;;;3.83;2.10;;;20.70;71.40;;;;;;5092773;28;20145;-57
2023/10/13 01:36:52;;;;;;;4.88;2.22;;;20.70;71.40;;;;;;5092415;28;20020;-57
2023/10/13 01:39:20;;;;;;;5.65;2.00;;;20.70;71.60;;;;;;5091314;28;20058;-54
2023/10/13 01:41:53;;;;;;;5.82;2.20;;;20.70;71.40;;;;;;5091328;28;20016;-58
2023/10/13 01:44:21;;;;;;;5.43;2.20;;;20.70;71.40;;;;;;5092537;28;20504;-57
2023/10/13 01:46:47;;;;;;;5.03;2.25;;;20.70;71.50;;;;;;5092207;28;20534;-57
2023/10/13 01:49:17;;;;;;;4.13;2.00;;;20.70;71.60;;;;;;5092418;28;20024;-56
2023/10/13 01:51:43;;;;;;;5.90;2.25;;;20.70;71.50;;;;;;5091350;28;20395;-56
2023/10/13 01:54:12;;;;;;;4.57;2.40;;;20.70;71.50;;;;;;5090639;28;20020;-58
2023/10/13 01:56:45;;;;;;;3.42;2.05;;;20.70;71.60;;;;;;5092024;28;20028;-58
2023/10/13 01:59:12;;;;;;;5.00;2.10;;;20.70;71.60;;;;;;5090947;28;20050;-55
2023/10/13 02:01:39;;;;;;;5.18;2.20;;;20.70;71.50;;;;;;5091066;28;20024;-57
2023/10/13 02:04:06;;;;;;;5.07;2.50;;;20.70;71.50;;;;;;5090953;28;20457;-56
2023/10/13 02:06:34;;;;;;;5.75;2.50;;;20.70;71.50;;;;;;5090705;28;20498;-59
2023/10/13 02:09:25;;;;;;;3.78;2.20;;;20.70;71.50;;;;;;5090829;28;20035;-58
2023/10/13 02:11:55;;;;;;;4.90;2.30;;;20.70;71.50;;;;;;5090937;28;20032;-57
2023/10/13 02:14:25;;;;;;;3.97;2.20;;;20.70;71.50;;;;;;5092165;28;20028;-57
2023/10/13 02:16:56;;;;;;;3.42;2.03;;;20.70;71.50;;;;;;5090809;28;20047;-55
2023/10/13 02:19:27;;;;;;;5.00;2.30;;;20.70;71.50;;;;;;5090640;28;20032;-58
2023/10/13 02:21:58;;;;;;;4.18;2.20;;;20.70;71.50;;;;;;5092429;28;20052;-57
2023/10/13 02:24:29;;;;;;;3.63;2.17;;;20.60;71.40;;;;;;5091901;28;20028;-57
2023/10/13 02:27:02;;;;;;;4.68;2.17;;;20.60;71.50;;;;;;5091743;28;20035;-55
2023/10/13 02:29:28;;;;;;;4.50;1.80;;;20.60;71.50;;;;;;5090589;28;20078;-56
2023/10/13 02:31:55;;;;;;;4.65;2.20;;;20.60;71.50;;;;;;5090580;28;20024;-56
2023/10/13 02:34:23;;;;;;;3.63;2.25;;;20.60;71.50;;;;;;5091882;28;20034;-58
2023/10/13 02:36:49;;;;;;;4.22;2.38;;;20.70;71.60;;;;;;5091565;28;20035;-58
2023/10/13 02:39:16;;;;;;;4.50;2.45;;;20.60;71.50;;;;;;5091733;28;20384;-59
2023/10/13 02:41:47;;;;;;;4.43;2.30;;;20.70;71.50;;;;;;5091788;28;20035;-59
2023/10/13 02:44:26;;;;;;;5.00;2.35;;;20.60;71.40;;;;;;5091624;28;20507;-59
2023/10/13 02:46:55;;;;;;;3.90;2.38;;;20.60;71.50;;;;;;5090275;28;20031;-59
2023/10/13 02:49:26;;;;;;;3.90;2.20;;;20.60;71.50;;;;;;5091554;28;20017;-59
2023/10/13 02:51:55;;;;;;;4.53;2.60;;;20.60;71.40;;;;;;5091604;28;20436;-59
2023/10/13 02:54:21;;;;;;;6.18;2.65;;;20.60;72.10;;;;;;5091432;28;20028;-59
2023/10/13 02:57:03;;;;;;;5.38;2.28;;;20.60;71.50;;;;;;5091371;28;20023;-58
2023/10/13 02:59:34;;;;;;;4.90;2.35;;;20.60;71.40;;;;;;5091379;28;20028;-59
2023/10/13 03:02:17;;;;;;;4.15;2.25;;;20.60;71.40;;;;;;5090289;28;20021;-55
2023/10/13 03:04:59;;;;;;;4.82;2.40;;;20.60;71.40;;;;;;5089904;28;20032;-57
2023/10/13 03:07:28;;;;;;;4.60;2.58;;;20.60;71.50;;;;;;5094669;28;20072;-54
2023/10/13 03:10:09;;;;;;;3.50;2.28;;;20.60;71.40;;;;;;5095573;28;20020;-56
2023/10/13 03:12:36;;;;;;;7.95;2.60;;;20.60;71.40;;;;;;5095487;28;20107;-56
2023/10/13 03:15:14;;;;;;;5.07;2.58;;;20.60;72.10;;;;;;5094158;28;20399;-59
2023/10/13 03:17:43;;;;;;;5.45;2.22;;;20.60;71.40;;;;;;5095505;28;20028;-59
2023/10/13 03:20:15;;;;;;;5.93;2.53;;;20.60;71.50;;;;;;5095281;28;20043;-59
2023/10/13 03:22:44;;;;;;;5.35;2.40;;;20.60;71.50;;;;;;5094090;28;20483;-56
2023/10/13 03:25:18;;;;;;;5.80;2.50;;;20.60;71.40;;;;;;5093884;28;20051;-58
2023/10/13 03:30:23;;;;;;;4.70;2.47;;;20.60;71.40;;;;;;5093894;28;20047;-56
2023/10/13 03:32:54;;;;;;;5.20;2.50;;;20.60;71.50;;;;;;5095101;28;20537;-56
2023/10/13 03:35:27;;;;;;;4.45;2.30;;;20.60;71.50;;;;;;5094708;28;20028;-58
2023/10/13 03:37:54;;;;;;;4.88;2.67;;;20.60;71.50;;;;;;5095029;28;20027;-56
2023/10/13 03:43:04;;;;;;;5.15;2.45;;;20.60;71.50;;;;;;5095033;28;20116;-57
2023/10/13 03:46:00;;;;;;;3.90;2.30;;;20.60;71.40;;;;;;5094614;28;20028;-57
2023/10/13 03:51:10;;;;;;;4.72;2.40;;;20.60;71.40;;;;;;5094813;28;20031;-52
2023/10/13 03:53:52;;;;;;;3.58;2.15;;;20.60;71.40;;;;;;5094439;28;20507;-57
2023/10/13 03:56:38;;;;;;;3.55;2.40;;;20.70;71.40;;;;;;5094448;28;20510;-53
2023/10/13 03:59:06;;;;;;;3.63;2.42;;;20.60;71.40;;;;;;5094458;28;20024;-57
2023/10/13 04:17:29;;;;;;;7.20;2.60;;;20.70;71.30;;;;;;5094045;28;20044;-58
2023/10/13 04:28:15;;;;;;;5.57;2.63;;;20.70;71.30;;;;;;5094107;28;20024;-55
2023/10/13 04:30:59;;;;;;;4.63;2.85;;;20.70;71.30;;;;;;5094201;28;20135;-55
2023/10/13 04:38:56;;;;;;;5.53;2.85;;;20.70;71.50;;;;;;5093813;28;20058;-54
2023/10/13 04:42:13;;;;;;;6.60;3.10;;;20.70;71.40;;;;;;5093825;28;20032;-57
2023/10/13 05:51:47;;;;;;;5.43;3.13;;;20.60;71.50;;;;;;5072017;28;20028;-56
2023/10/13 06:29:53;;;;;;;7.82;3.63;;;20.60;72.10;;;;;;5071532;28;20017;-59
2023/10/13 06:32:19;;;;;;;4.93;3.13;;;20.70;71.60;;;;;;5071447;28;20154;-57
2023/10/13 06:34:46;;;;;;;10.13;3.55;;;20.60;71.60;;;;;;5071217;28;20036;-59
2023/10/13 06:40:25;;;;;;;6.95;3.40;;;20.70;71.60;;;;;;5028874;28;20546;-59
2023/10/13 06:42:54;;;;;;;6.70;3.60;;;20.70;71.70;;;;;;5029055;28;20061;-57
2023/10/13 06:45:21;;;;;;;7.00;3.38;;;20.60;71.50;;;;;;5028798;28;20037;-57
2023/10/13 06:47:52;;;;;;;6.18;3.10;;;20.70;71.80;;;;;;5029220;28;20064;-56
2023/10/13 06:50:24;;;;;;;8.45;3.75;;;20.70;72.10;;;;;;5029054;28;20053;-55
2023/10/13 06:52:50;;;;;;;13.25;3.53;;;20.70;71.70;;;;;;5029143;28;20061;-60
2023/10/13 06:55:27;;;;;;;6.28;3.20;;;20.70;72.90;;;;;;5016285;28;20184;-58
2023/10/13 06:57:59;;;;;;;8.85;3.38;;;20.80;72.20;;;;;;5025952;28;20241;-59
2023/10/13 07:00:29;;;;;;;13.65;3.45;;;20.80;72.50;;;;;;5063213;23;20037;-49
2023/10/13 07:03:06;;;;;;;11.50;4.75;;;20.80;72.00;;;;;;5043390;28;20030;-51
2023/10/13 07:05:41;;;;;;;20.52;6.63;;;20.80;73.00;;;;;;5029794;28;20022;-49
2023/10/13 07:08:07;;;;;;;14.15;6.35;;;20.70;72.60;;;;;;5037323;28;20031;-46
2023/10/13 07:10:44;;;;;;;19.35;5.95;;;20.70;72.70;;;;;;5021331;28;20144;-47
2023/10/13 07:13:13;;;;;;;14.40;5.63;;;20.70;72.70;;;;;;5028754;28;20021;-49
2023/10/13 07:15:44;;;;;;;12.85;5.95;;;20.70;72.80;;;;;;5028217;28;20037;-50
2023/10/13 07:18:19;;;;;;;14.55;6.65;;;20.70;72.90;;;;;;5028386;28;20025;-48
2023/10/13 07:20:44;;;;;;;14.70;6.32;;;20.80;73.40;;;;;;5029147;28;20112;-54
2023/10/13 07:23:20;;;;;;;21.35;6.82;;;20.80;73.00;;;;;;5028894;28;20164;-56
2023/10/13 07:25:54;;;;;;;19.27;8.63;;;20.90;73.00;;;;;;5028440;28;20029;-54
2023/10/13 07:28:21;;;;;;;18.88;8.95;;;21.00;74.40;;;;;;5027758;28;20052;-52
2023/10/13 07:31:08;;;;;;;17.98;7.95;;;21.10;73.40;;;;;;5029184;28;20025;-55
2023/10/13 07:33:34;;;;;;;18.10;8.43;;;21.10;73.50;;;;;;5029083;28;20033;-53
2023/10/13 07:36:15;;;;;;;22.33;9.15;;;21.00;73.30;;;;;;5028407;28;20067;-56
2023/10/13 07:38:49;;;;;;;21.70;7.88;;;21.00;74.40;;;;;;5028280;28;20385;-52
2023/10/13 07:41:42;;;;;;;16.10;8.13;;;20.90;73.80;;;;;;5027250;28;20489;-51
2023/10/13 07:44:07;;;;;;;17.60;8.27;;;20.80;73.80;;;;;;5021790;28;20080;-50
2023/10/13 07:46:35;;;;;;;24.13;8.75;;;20.80;74.00;;;;;;5028206;28;20021;-56
2023/10/13 07:49:13;;;;;;;18.30;8.95;;;20.80;73.90;;;;;;5028366;28;20022;-49
2023/10/13 07:51:45;;;;;;;16.48;8.90;;;20.80;73.90;;;;;;5028827;28;20049;-49
2023/10/13 07:54:21;;;;;;;17.05;7.70;;;20.70;74.20;;;;;;5025622;28;20083;-55
2023/10/13 07:56:50;;;;;;;25.17;8.68;;;20.80;74.70;;;;;;5032289;28;20036;-59
2023/10/13 07:59:16;;;;;;;19.42;7.72;;;20.80;74.90;;;;;;5024887;28;20068;-51
2023/10/13 08:01:42;;;;;;;23.92;7.85;;;20.80;75.00;;;;;;5031366;28;20484;-52
2023/10/13 08:04:12;;;;;;;16.35;7.55;;;20.80;75.00;;;;;;5031193;28;20085;-52
2023/10/13 08:06:40;;;;;;;19.98;6.90;;;20.80;74.90;;;;;;5030827;28;20021;-52
2023/10/13 08:09:07;;;;;;;15.82;7.07;;;20.80;75.10;;;;;;5031018;28;20017;-48
2023/10/13 08:11:39;;;;;;;16.15;6.85;;;20.80;75.60;;;;;;5031600;28;20025;-49
2023/10/13 08:16:52;;;;;;;20.90;6.90;;;20.80;75.10;;;;;;5030687;28;20021;-51
2023/10/13 08:19:27;;;;;;;16.65;7.05;;;20.90;75.40;;;;;;5031036;28;20397;-50
2023/10/13 08:22:14;;;;;;;17.13;7.15;;;20.90;75.40;;;;;;5030169;28;20022;-51
2023/10/13 08:32:22;;;;;;;17.27;5.60;;;20.90;75.80;;;;;;5030439;28;20100;-52
2023/10/13 08:51:43;;;;;;;17.50;5.90;;;20.90;76.00;;;;;;5033376;28;20032;-51
2023/10/13 08:53:44;;;;;;;17.00;6.10;;;20.90;75.90;;;;;;5014306;28;20095;-57
2023/10/13 09:13:00;;;;;;;19.23;5.97;;;20.90;75.90;;;;;;4969773;28;20102;-54
2023/10/13 09:17:52;;;;;;;23.48;5.97;;;20.90;75.90;;;;;;4969471;28;20035;-53
2023/10/13 09:23:24;;;;;;;19.35;5.43;;;20.90;75.90;;;;;;4969392;28;20493;-57
2023/10/13 09:25:57;;;;;;;19.63;5.97;;;20.90;75.80;;;;;;4967535;28;20093;-52
2023/10/13 09:28:27;;;;;;;21.52;6.20;;;20.90;76.00;;;;;;4974173;28;20571;-53
2023/10/13 09:30:58;;;;;;;25.45;5.85;;;21.00;75.70;;;;;;4967225;28;20752;-54
2023/10/13 09:33:50;;;;;;;16.45;5.47;;;21.00;75.70;;;;;;4968053;28;20069;-53
2023/10/13 09:36:17;;;;;;;12.75;5.00;;;20.90;75.70;;;;;;4969062;28;20520;-50
2023/10/13 09:39:12;;;;;;;12.95;5.05;;;20.90;75.60;;;;;;4968996;28;20100;-54
2023/10/13 09:41:37;;;;;;;14.52;5.35;;;20.90;75.40;;;;;;5024403;28;20038;-49
2023/10/13 09:44:03;;;;;;;10.57;4.80;;;21.00;75.50;;;;;;5031949;28;20033;-54
2023/10/13 09:46:34;;;;;;;17.88;5.20;;;20.90;75.40;;;;;;5030190;28;20033;-50
2023/10/13 09:49:14;;;;;;;19.45;5.25;;;21.00;75.50;;;;;;5030093;28;20033;-54
2023/10/13 09:51:45;;;;;;;18.35;6.25;;;21.00;75.40;;;;;;5030002;28;20100;-49
2023/10/13 09:54:16;;;;;;;13.65;5.03;;;21.00;75.40;;;;;;5030063;28;20518;-50
2023/10/13 09:56:51;;;;;;;15.05;5.45;;;21.00;75.30;;;;;;5029664;28;20049;-48
2023/10/13 09:59:34;;;;;;;17.75;5.88;;;21.00;75.30;;;;;;5029758;28;20045;-50
2023/10/13 10:02:08;;;;;;;12.55;5.38;;;21.00;75.30;;;;;;5029911;28;20033;-49
2023/10/13 10:04:50;;;;;;;11.75;5.38;;;21.00;75.30;;;;;;5029427;28;20040;-50
2023/10/13 10:07:31;;;;;;;11.32;5.00;;;21.00;75.30;;;;;;5029976;28;20025;-56
2023/10/13 10:10:03;;;;;;;10.93;4.82;;;21.00;75.30;;;;;;5029568;28;20451;-55
2023/10/13 10:12:57;;;;;;;15.00;5.20;;;21.00;75.20;;;;;;5029769;28;20109;-57
2023/10/13 10:15:35;;;;;;;12.77;5.03;;;21.00;75.20;;;;;;5028940;28;20022;-56
2023/10/13 10:18:03;;;;;;;12.23;4.97;;;21.00;75.20;;;;;;5029671;28;20033;-50
2023/10/13 10:20:42;;;;;;;10.52;4.93;;;21.00;75.20;;;;;;5029421;28;20067;-56
2023/10/13 10:23:21;;;;;;;14.40;5.28;;;21.00;75.20;;;;;;5029501;28;20025;-53
2023/10/13 10:25:50;;;;;;;14.20;5.50;;;21.00;75.60;;;;;;5029111;28;20063;-47
2023/10/13 10:28:16;;;;;;;12.50;4.95;;;21.00;75.50;;;;;;5029558;28;20362;-50
2023/10/13 10:30:43;;;;;;;15.63;5.55;;;21.00;75.60;;;;;;5028739;28;20041;-50
2023/10/13 10:33:15;;;;;;;17.00;5.05;;;21.00;75.80;;;;;;5029407;28;20505;-47
2023/10/13 10:35:58;;;;;;;34.90;5.55;;;21.10;75.80;;;;;;5028795;28;20029;-50
2023/10/13 10:38:24;;;;;;;16.20;5.05;;;21.10;75.80;;;;;;5029373;28;20029;-48
2023/10/13 10:41:01;;;;;;;17.83;5.03;;;21.10;75.90;;;;;;5029025;28;20108;-50
2023/10/13 10:43:43;;;;;;;19.17;5.35;;;21.10;76.00;;;;;;5029658;28;20029;-53
2023/10/13 10:46:15;;;;;;;17.42;5.30;;;21.10;75.70;;;;;;5029280;28;20029;-46
2023/10/13 10:48:44;;;;;;;14.98;5.13;;;21.10;76.00;;;;;;5029383;28;20469;-46
2023/10/13 10:51:21;;;;;;;11.33;4.80;;;21.10;75.90;;;;;;5028946;28;20075;-47
2023/10/13 10:53:51;;;;;;;13.70;5.03;;;21.10;75.80;;;;;;5029083;28;20020;-50
2023/10/13 10:56:37;;;;;;;14.25;5.15;;;21.10;75.70;;;;;;5028786;28;20152;-52
2023/10/13 10:59:08;;;;;;;14.95;4.90;;;21.10;75.60;;;;;;5028923;28;20397;-52
2023/10/13 11:01:46;;;;;;;18.20;5.05;;;21.10;75.60;;;;;;5029326;28;20032;-46
2023/10/13 11:06:56;;;;;;;13.10;5.05;;;21.10;75.60;;;;;;5029147;28;20033;-46
2023/10/13 11:12:14;;;;;;;14.52;4.90;;;21.10;75.50;;;;;;5029024;28;20032;-53
2023/10/13 11:14:42;;;;;;;12.90;4.53;;;21.10;75.40;;;;;;5028540;28;20025;-46
2023/10/13 11:17:19;;;;;;;10.02;4.72;;;21.10;75.40;;;;;;5028890;28;20100;-54
2023/10/13 11:19:45;;;;;;;11.40;4.70;;;21.10;75.40;;;;;;5028777;28;20094;-46
2023/10/13 11:22:42;;;;;;;14.30;5.22;;;21.10;75.50;;;;;;5028852;28;20432;-51
2023/10/13 11:25:10;;;;;;;9.82;4.72;;;21.10;75.40;;;;;;5028573;28;20507;-50
2023/10/13 11:30:19;;;;;;;14.05;5.75;;;21.10;76.00;;;;;;5032596;28;20026;-53
2023/10/13 11:32:46;;;;;;;13.77;5.15;;;21.10;75.70;;;;;;5032721;28;20037;-53
2023/10/13 11:35:23;;;;;;;15.80;5.07;;;21.10;75.60;;;;;;5032311;28;20037;-51
2023/10/13 11:40:43;;;;;;;13.05;4.95;;;21.10;75.80;;;;;;5032636;28;20021;-50
2023/10/13 11:43:17;;;;;;;20.05;5.22;;;21.10;75.90;;;;;;5031387;28;20064;-54
2023/10/13 11:48:36;;;;;;;13.23;4.77;;;21.10;75.90;;;;;;5032331;28;20170;-49
2023/10/13 11:51:07;;;;;;;13.00;5.15;;;21.10;75.80;;;;;;5032248;28;20771;-54
2023/10/13 11:53:36;;;;;;;14.90;5.20;;;21.10;75.90;;;;;;5032407;28;20033;-49
2023/10/13 11:56:09;;;;;;;15.82;5.53;;;21.20;75.90;;;;;;5032147;28;20388;-51
2023/10/13 11:58:36;;;;;;;11.23;5.28;;;21.20;75.90;;;;;;5032321;28;20028;-51
2023/10/13 12:11:45;;;;;;;12.13;5.70;;;21.20;75.90;;;;;;5031810;28;20021;-50
2023/10/13 12:14:36;;;;;;;10.52;5.30;;;21.10;75.80;;;;;;5031891;28;20515;-50
2023/10/13 12:17:10;;;;;;;12.82;5.55;;;21.20;75.90;;;;;;5031785;28;20469;-48
2023/10/13 12:19:38;;;;;;;10.40;5.15;;;21.20;75.80;;;;;;5031582;28;20025;-51
2023/10/13 12:22:08;;;;;;;21.95;5.80;;;21.10;76.30;;;;;;5031657;28;20420;-49
2023/10/13 12:27:18;;;;;;;11.45;5.00;;;21.10;75.70;;;;;;5031618;28;19963;-53
2023/10/13 12:29:48;;;;;;;10.95;5.20;;;21.20;75.70;;;;;;5031347;28;20037;-53
2023/10/13 12:32:20;;;;;;;14.73;5.20;;;21.10;75.70;;;;;;5031461;28;20045;-57
2023/10/13 12:34:57;;;;;;;23.75;5.53;;;21.10;75.60;;;;;;5030633;28;20033;-52
2023/10/13 12:51:20;;;;;;;11.15;5.38;;;21.20;75.80;;;;;;5031052;28;20393;-55
2023/10/13 12:54:04;;;;;;;13.77;4.50;;;21.20;75.80;;;;;;5031272;28;20466;-49
2023/10/13 12:56:30;;;;;;;16.35;5.53;;;21.20;76.00;;;;;;5029467;28;20060;-49
2023/10/13 12:58:56;;;;;;;15.88;5.57;;;21.20;75.60;;;;;;5029128;28;20503;-50
2023/10/13 13:01:32;;;;;;;15.85;4.75;;;21.30;75.50;;;;;;5063515;23;20044;-58
2023/10/13 13:03:59;;;;;;;17.50;5.22;;;21.30;75.50;;;;;;5060825;28;20024;-57
2023/10/13 13:06:26;;;;;;;17.25;4.85;;;21.30;75.60;;;;;;5069787;28;20459;-58
2023/10/13 13:08:56;;;;;;;17.63;5.43;;;21.30;75.90;;;;;;5044326;28;20024;-58
2023/10/13 13:11:22;;;;;;;12.38;4.95;;;21.30;75.80;;;;;;5064157;28;20036;-59
2023/10/13 13:13:49;;;;;;;10.70;4.57;;;21.30;75.80;;;;;;5050444;28;20028;-58
2023/10/13 13:16:18;;;;;;;17.65;5.65;;;21.30;75.80;;;;;;5043237;28;20024;-58
2023/10/13 13:18:47;;;;;;;11.60;5.40;;;21.20;75.80;;;;;;5070288;28;20510;-59
2023/10/13 13:21:21;;;;;;;15.30;5.07;;;21.20;75.80;;;;;;5052203;28;20047;-56
2023/10/13 13:23:47;;;;;;;11.90;4.82;;;21.20;75.80;;;;;;5041242;28;20029;-59
2023/10/13 13:26:15;;;;;;;21.30;7.03;;;21.30;75.80;;;;;;5037928;28;20033;-58
2023/10/13 13:28:42;;;;;;;31.35;9.07;;;21.20;76.00;;;;;;5037967;28;20079;-58
2023/10/13 13:31:08;;;;;;;26.33;10.20;;;21.30;76.60;;;;;;5041334;28;20460;-58
2023/10/13 13:33:38;;;;;;;45.92;19.48;;;21.30;76.30;;;;;;5039121;28;20115;-60
2023/10/13 13:36:04;;;;;;;;;;;21.40;76.30;;;;;;5017738;28;20068;-58
2023/10/13 13:38:32;;;;;;;39.50;14.45;;;21.40;77.00;;;;;;5038232;28;19913;-55
2023/10/13 13:40:58;;;;;;;27.88;10.65;;;21.40;76.90;;;;;;5035257;28;20574;-57
2023/10/13 13:43:50;;;;;;;26.35;11.18;;;21.40;76.80;;;;;;5033773;28;20564;-57
2023/10/13 13:46:24;;;;;;;34.40;11.63;;;21.40;77.00;;;;;;5035763;28;20157;-56
2023/10/13 13:48:57;;;;;;;22.90;9.73;;;21.40;76.90;;;;;;5041075;28;20029;-57
2023/10/13 13:51:27;;;;;;;29.75;10.43;;;21.40;76.90;;;;;;5041169;28;20056;-57
2023/10/13 13:53:54;;;;;;;22.25;10.38;;;21.30;76.90;;;;;;5042582;28;20048;-56
2023/10/13 13:56:21;;;;;;;26.38;10.43;;;21.30;76.90;;;;;;5038638;28;20029;-58
2023/10/13 13:58:49;;;;;;;21.77;9.10;;;21.30;76.90;;;;;;5006218;28;20412;-56
2023/10/13 14:01:19;;;;;;;22.70;9.67;;;21.30;76.80;;;;;;5038445;28;20514;-55
2023/10/13 14:03:47;;;;;;;19.60;8.90;;;21.30;76.80;;;;;;5007278;28;20033;-58
2023/10/13 14:06:28;;;;;;;20.83;8.65;;;21.30;76.90;;;;;;5034622;28;20025;-55
2023/10/13 14:08:59;;;;;;;24.15;8.80;;;21.30;76.80;;;;;;5045098;28;20048;-58
2023/10/13 14:14:28;;;;;;;21.45;8.75;;;21.30;77.30;;;;;;5036266;28;20108;-58
2023/10/13 14:17:02;;;;;;;19.83;7.95;;;21.30;76.80;;;;;;5033077;28;20024;-54
2023/10/13 14:19:28;;;;;;;23.77;7.35;;;21.30;76.80;;;;;;5033179;28;20037;-55
2023/10/13 14:21:58;;;;;;;20.48;8.02;;;21.30;76.70;;;;;;5034664;28;20029;-58
2023/10/13 14:24:27;;;;;;;15.45;6.88;;;21.30;76.80;;;;;;5032153;28;20507;-57
2023/10/13 14:27:07;;;;;;;20.90;8.13;;;21.30;76.80;;;;;;5033431;28;20021;-56
2023/10/13 14:29:33;;;;;;;15.95;7.13;;;21.30;76.90;;;;;;5036951;28;20029;-58
2023/10/13 14:31:59;;;;;;;18.00;6.97;;;21.30;76.70;;;;;;5032628;28;20037;-58
2023/10/13 14:34:26;;;;;;;14.23;6.90;;;21.30;76.80;;;;;;5034411;28;20072;-58
2023/10/13 14:36:54;;;;;;;19.05;7.25;;;21.30;76.60;;;;;;5035148;28;20075;-58
2023/10/13 14:39:20;;;;;;;17.65;7.68;;;21.30;77.00;;;;;;5038155;28;20045;-57
2023/10/13 14:41:47;;;;;;;16.42;7.22;;;21.30;77.00;;;;;;5023364;28;20090;-57
2023/10/13 14:44:14;;;;;;;26.38;7.72;;;21.30;77.50;;;;;;5035130;28;20585;-56
2023/10/13 14:46:40;;;;;;;20.30;7.80;;;21.30;77.60;;;;;;5030538;28;20029;-54
2023/10/13 14:49:06;;;;;;;19.90;8.30;;;21.30;77.40;;;;;;5035689;28;20027;-54
2023/10/13 14:51:32;;;;;;;22.40;7.10;;;21.40;77.20;;;;;;5030788;28;20033;-57
2023/10/13 14:53:59;;;;;;;27.33;8.50;;;21.30;77.20;;;;;;5039038;28;20437;-58
2023/10/13 14:56:26;;;;;;;15.18;7.05;;;21.30;77.40;;;;;;5041843;28;20099;-54
2023/10/13 14:58:53;;;;;;;28.58;7.28;;;21.30;77.40;;;;;;5039371;28;20441;-59
2023/10/13 15:01:22;;;;;;;20.08;7.60;;;21.30;77.70;;;;;;5041208;28;20037;-58
2023/10/13 15:03:50;;;;;;;19.85;7.38;;;21.30;77.60;;;;;;5040495;28;20036;-58
2023/10/13 15:06:24;;;;;;;14.32;7.03;;;21.30;77.60;;;;;;5036976;28;20252;-58
2023/10/13 15:08:51;;;;;;;18.38;7.28;;;21.30;77.80;;;;;;5026065;28;20132;-58
2023/10/13 15:11:20;;;;;;;15.43;6.90;;;21.30;77.80;;;;;;5018744;28;20421;-60
2023/10/13 15:13:49;;;;;;;18.92;7.20;;;21.30;77.80;;;;;;5036487;28;20447;-57
2023/10/13 15:16:19;;;;;;;14.88;7.70;;;21.30;77.80;;;;;;5036588;28;20068;-58
2023/10/13 15:18:46;;;;;;;22.25;8.30;;;21.30;77.50;;;;;;5040010;28;20144;-59
2023/10/13 15:21:19;;;;;;;20.45;7.75;;;21.30;77.70;;;;;;5047604;28;20070;-58
2023/10/13 15:23:45;;;;;;;21.75;7.95;;;21.30;77.80;;;;;;5040287;28;20029;-58
2023/10/13 15:26:13;;;;;;;16.65;7.75;;;21.30;77.80;;;;;;5036672;28;20525;-59
2023/10/13 15:28:48;;;;;;;14.35;7.18;;;21.30;77.80;;;;;;5037224;28;20040;-59
2023/10/13 15:31:37;;;;;;;18.58;7.15;;;21.30;77.80;;;;;;5037699;28;20491;-59
2023/10/13 15:34:10;;;;;;;17.90;7.78;;;21.30;77.80;;;;;;5038388;28;20037;-59
2023/10/13 15:36:37;;;;;;;18.92;7.45;;;21.30;77.80;;;;;;5034093;28;20424;-59
2023/10/13 15:39:08;;;;;;;19.85;8.52;;;21.30;77.80;;;;;;5038202;28;20037;-59
2023/10/13 15:41:33;;;;;;;17.20;7.38;;;21.30;77.80;;;;;;5044195;28;20078;-59
2023/10/13 15:43:59;;;;;;;17.70;7.20;;;21.30;77.80;;;;;;5036109;28;20033;-58
2023/10/13 15:46:26;;;;;;;16.27;7.28;;;21.30;77.80;;;;;;5039383;28;20025;-59
2023/10/13 15:48:53;;;;;;;17.88;7.00;;;21.30;77.70;;;;;;5037829;28;20043;-58
2023/10/13 15:51:19;;;;;;;16.48;7.38;;;21.30;77.70;;;;;;5034886;28;20021;-58
2023/10/13 15:53:48;;;;;;;16.50;7.55;;;21.30;77.70;;;;;;5035495;28;20404;-58
2023/10/13 15:56:15;;;;;;;21.02;8.02;;;21.30;77.60;;;;;;5036060;28;20091;-59
2023/10/13 15:58:43;;;;;;;20.00;8.15;;;21.30;77.60;;;;;;5042058;28;20021;-56
2023/10/13 16:01:12;;;;;;;19.70;8.32;;;21.30;77.60;;;;;;5042657;28;20911;-59
2023/10/13 16:03:51;;;;;;;21.15;8.20;;;21.30;77.70;;;;;;5024937;28;20049;-59
2023/10/13 16:06:17;;;;;;;18.45;8.38;;;21.30;77.60;;;;;;5041749;28;20468;-59
2023/10/13 16:08:44;;;;;;;25.13;8.77;;;21.30;77.60;;;;;;5039249;28;20071;-58
2023/10/13 16:11:17;;;;;;;18.63;8.68;;;21.30;77.60;;;;;;5041784;28;20072;-59
2023/10/13 16:13:44;;;;;;;18.02;8.52;;;21.30;77.60;;;;;;5022388;28;20520;-58
2023/10/13 16:16:23;;;;;;;16.45;8.07;;;21.30;77.60;;;;;;5046557;28;20024;-59
2023/10/13 16:18:50;;;;;;;17.63;8.68;;;21.30;77.70;;;;;;5036909;28;20128;-58
2023/10/13 16:21:16;;;;;;;19.48;8.23;;;21.30;78.20;;;;;;5041702;28;20029;-56
2023/10/13 16:23:47;;;;;;;21.13;8.90;;;21.30;77.40;;;;;;5035354;28;20036;-57
2023/10/13 16:26:14;;;;;;;20.10;8.35;;;21.30;77.30;;;;;;5033529;28;20028;-58
2023/10/13 16:28:40;;;;;;;21.27;8.35;;;21.30;77.40;;;;;;5048582;28;20505;-55
2023/10/13 16:31:07;;;;;;;32.20;8.00;;;21.30;78.10;;;;;;5049884;28;20074;-56
2023/10/13 16:33:35;;;;;;;26.42;9.40;;;21.40;78.10;;;;;;5050246;28;20520;-56
2023/10/13 16:36:10;;;;;;;20.27;8.38;;;21.30;77.50;;;;;;5049341;28;20039;-56
2023/10/13 16:38:39;;;;;;;25.20;8.25;;;21.30;77.40;;;;;;5044764;28;20036;-57
2023/10/13 16:41:08;;;;;;;22.98;8.98;;;21.30;77.50;;;;;;5032200;28;20038;-56
2023/10/13 16:43:35;;;;;;;15.82;7.88;;;21.20;77.50;;;;;;4999338;28;20457;-57
2023/10/13 16:46:06;;;;;;;19.58;8.07;;;21.30;77.50;;;;;;5045711;28;20060;-57
2023/10/13 16:48:35;;;;;;;21.27;8.50;;;21.20;77.50;;;;;;5049648;28;20428;-58
2023/10/13 16:51:01;;;;;;;18.08;8.27;;;21.20;77.60;;;;;;5043746;28;20048;-57
2023/10/13 16:53:27;;;;;;;18.75;8.35;;;21.20;77.60;;;;;;5032317;28;20100;-56
2023/10/13 16:55:58;;;;;;;17.08;7.65;;;21.20;77.60;;;;;;5031552;28;20025;-55
2023/10/13 16:58:24;;;;;;;16.60;8.02;;;21.20;77.70;;;;;;5041682;28;20512;-57